Time;durP1;ratioP1;P1;durP2;ratioP2;P2;SDS_P1;SDS_P2;PMS_P1;PMS_P2;Temp;Humidity;BMP_temperature;BMP_pressure;BME280_temperature;BME280_humidity;BME280_pressure;Samples;Min_cycle;Max_cycle;Signal;HPM_P1;HPM_P2
2022/07/30 00:00:29;;;;;;;5.22;2.62;;;;;;;24.86;50.20;100238.06;18555727;32;20101;-56
2022/07/30 00:10:34;;;;;;;5.78;2.80;;;;;;;25.52;48.58;100238.19;18563684;32;20099;-56
2022/07/30 00:20:39;;;;;;;5.40;2.20;;;;;;;25.58;48.22;100219.03;18565120;32;20117;-55
2022/07/30 00:30:47;;;;;;;5.18;2.60;;;;;;;25.53;48.11;100204.28;18564582;32;20176;-55
2022/07/30 00:40:57;;;;;;;5.12;2.50;;;;;;;25.54;48.60;100214.88;18564566;32;20140;-55
2022/07/30 00:51:01;;;;;;;5.45;2.78;;;;;;;25.27;49.59;100218.44;18563849;32;20158;-56
2022/07/30 01:01:05;;;;;;;4.97;2.58;;;;;;;25.51;49.00;100203.53;18563454;32;20115;-56
2022/07/30 01:11:09;;;;;;;5.03;2.58;;;;;;;25.64;48.86;100199.06;18562974;32;20148;-55
2022/07/30 01:21:15;;;;;;;7.68;2.80;;;;;;;25.50;49.77;100194.66;18562572;32;20469;-55
2022/07/30 01:31:21;;;;;;;6.78;2.80;;;;;;;25.63;49.41;100203.56;18562683;32;20088;-56
2022/07/30 01:41:25;;;;;;;5.80;2.83;;;;;;;25.63;49.70;100205.38;18562590;32;20135;-56
2022/07/30 01:51:30;;;;;;;5.12;2.58;;;;;;;25.82;49.61;100206.75;18562250;32;20100;-55
2022/07/30 02:01:39;;;;;;;6.30;2.97;;;;;;;25.05;51.87;100194.97;18562134;32;20120;-55
2022/07/30 02:22:10;;;;;;;7.18;2.95;;;;;;;24.83;53.13;100167.03;18561225;32;20110;-56
2022/07/30 02:32:19;;;;;;;6.05;2.75;;;;;;;25.13;52.56;100157.94;18559873;32;20372;-56
2022/07/30 02:42:23;;;;;;;6.05;2.50;;;;;;;25.10;52.48;100130.56;18560362;32;20084;-56
2022/07/30 02:52:28;;;;;;;6.07;3.03;;;;;;;25.04;52.52;100154.09;18559565;32;20345;-55
2022/07/30 03:02:33;;;;;;;6.87;3.05;;;;;;;24.31;55.06;100155.25;18559291;32;20084;-55
2022/07/30 03:12:42;;;;;;;6.72;2.75;;;;;;;24.28;55.16;100155.44;18560073;32;20128;-55
2022/07/30 03:22:47;;;;;;;4.57;2.65;;;;;;;23.23;58.93;100147.53;18558105;32;20115;-55
2022/07/30 03:32:52;;;;;;;5.15;2.70;;;;;;;23.83;57.60;100143.06;18558444;32;20084;-55
2022/07/30 03:42:56;;;;;;;44.35;4.65;;;;;;;24.19;56.52;100141.75;18563239;32;20122;-55
2022/07/30 03:53:01;;;;;;;6.55;2.78;;;;;;;24.41;55.49;100139.50;18566022;32;20200;-55
2022/07/30 04:03:04;;;;;;;6.45;2.72;;;;;;;24.10;56.55;100132.50;18565598;32;20142;-55
2022/07/30 04:13:08;;;;;;;6.07;2.65;;;;;;;24.15;56.49;100144.72;18565280;32;20111;-55
2022/07/30 04:23:12;;;;;;;5.53;2.35;;;;;;;24.64;55.32;100151.34;18564799;32;20101;-56
2022/07/30 04:33:16;;;;;;;5.40;2.75;;;;;;;25.08;54.00;100160.91;18564015;32;20096;-56
2022/07/30 04:43:20;;;;;;;4.97;2.37;;;;;;;25.08;54.06;100176.06;18564299;32;20150;-55
2022/07/30 04:53:25;;;;;;;7.12;3.10;;;;;;;24.70;55.78;100145.59;18563403;32;20092;-55
2022/07/30 05:03:29;;;;;;;6.37;2.80;;;;;;;24.98;55.51;100148.28;18557070;32;20158;-55
2022/07/30 05:13:34;;;;;;;4.43;2.55;;;;;;;25.32;54.99;100133.47;18563269;32;20459;-56
2022/07/30 05:23:40;;;;;;;6.55;2.87;;;;;;;26.07;52.47;100122.97;18563069;32;20137;-56
2022/07/30 05:33:53;;;;;;;6.95;2.83;;;;;;;26.46;52.05;100138.97;18559941;32;20092;-56
2022/07/30 05:43:56;;;;;;;6.07;2.92;;;;;;;26.92;50.19;100160.62;18548162;32;20690;-56
2022/07/30 05:54:01;;;;;;;5.20;2.58;;;;;;;26.67;50.61;100160.62;18562124;32;20088;-56
2022/07/30 06:04:04;;;;;;;6.05;2.90;;;;;;;26.73;50.45;100160.13;18561047;32;20115;-56
2022/07/30 06:14:09;;;;;;;5.03;2.70;;;;;;;26.09;56.07;100174.56;18555257;32;20146;-55
2022/07/30 06:24:15;;;;;;;5.82;2.65;;;;;;;25.49;56.00;100168.88;18557576;32;20173;-55
2022/07/30 06:34:20;;;;;;;11.85;3.37;;;;;;;25.34;57.89;100165.44;18555281;32;20101;-55
2022/07/30 06:44:23;;;;;;;8.07;3.00;;;;;;;25.66;56.34;100186.47;18560388;32;20101;-55
2022/07/30 06:54:30;;;;;;;6.40;2.90;;;;;;;25.50;57.30;100181.31;18539687;32;20152;-55
2022/07/30 07:04:33;;;;;;;6.12;2.78;;;;;;;25.56;58.37;100178.22;18559210;32;20108;-55
2022/07/30 07:14:38;;;;;;;5.65;2.80;;;;;;;25.41;58.08;100171.22;18562222;32;20111;-56
2022/07/30 07:24:41;;;;;;;6.72;2.83;;;;;;;25.28;58.65;100164.03;18566706;32;20092;-56
2022/07/30 07:34:46;;;;;;;5.65;2.87;;;;;;;26.72;54.33;100162.94;18565158;32;20108;-57
2022/07/30 07:44:49;;;;;;;6.32;2.70;;;;;;;28.11;50.63;100153.28;18565890;32;20104;-56
2022/07/30 07:54:54;;;;;;;5.90;2.90;;;;;;;28.49;49.39;100143.97;18565007;32;20092;-56
2022/07/30 08:04:57;;;;;;;6.90;3.15;;;;;;;28.61;49.08;100133.22;18552127;32;20112;-56
2022/07/30 08:15:02;;;;;;;8.07;2.60;;;;;;;27.59;51.81;100150.22;18564372;32;20096;-56
2022/07/30 08:25:07;;;;;;;8.68;3.10;;;;;;;27.74;51.02;100197.31;18547755;31;20136;-58
2022/07/30 08:35:12;;;;;;;7.68;3.25;;;;;;;27.50;52.42;100198.19;18549109;32;20118;-56
2022/07/30 08:45:17;;;;;;;7.55;3.58;;;;;;;26.55;60.43;100183.78;18562255;32;20089;-57
2022/07/30 08:55:23;;;;;;;7.45;3.87;;;;;;;25.78;65.60;100195.44;18549184;32;20091;-57
2022/07/30 09:05:26;;;;;;;8.57;3.87;;;;;;;26.21;65.55;100209.44;18562988;32;20106;-58
2022/07/30 09:15:32;;;;;;;9.02;4.00;;;;;;;26.19;63.63;100225.56;18547420;32;20712;-57
2022/07/30 09:25:38;;;;;;;9.20;3.87;;;;;;;25.86;65.14;100211.78;18561639;32;20149;-57
2022/07/30 09:35:43;;;;;;;9.18;4.25;;;;;;;25.88;65.88;100206.34;18562039;32;20080;-57
2022/07/30 09:45:51;;;;;;;10.02;4.62;;;;;;;25.91;66.85;100211.47;18562036;32;20136;-56
2022/07/30 09:56:01;;;;;;;9.65;4.40;;;;;;;25.90;66.58;100215.97;18562360;32;20084;-56
2022/07/30 10:06:04;;;;;;;8.60;4.30;;;;;;;25.85;67.13;100211.91;18560635;32;20165;-56
2022/07/30 10:16:09;;;;;;;8.68;4.22;;;;;;;25.73;67.90;100210.94;18561274;32;20084;-56
2022/07/30 10:26:13;;;;;;;8.65;4.20;;;;;;;25.66;67.50;100215.00;18545505;32;20106;-56
2022/07/30 10:36:21;;;;;;;10.77;5.28;;;;;;;25.41;68.49;100291.44;18558605;32;20459;-56
2022/07/30 10:46:34;;;;;;;8.63;3.50;;;;;;;24.77;70.65;100245.69;18559528;32;20104;-56
2022/07/30 10:56:39;;;;;;;7.10;2.80;;;;;;;24.60;69.40;100248.56;18560041;32;20349;-55
2022/07/30 11:06:43;;;;;;;7.87;3.17;;;;;;;24.38;69.00;100232.09;18558753;31;20173;-56
2022/07/30 11:17:06;;;;;;;6.10;2.30;;;;;;;24.11;70.48;100213.37;18558486;32;20088;-56
2022/07/30 11:27:10;;;;;;;3.80;2.03;;;;;;;24.16;70.19;100203.25;18559546;32;20103;-56
2022/07/30 11:37:18;;;;;;;4.55;1.90;;;;;;;24.03;71.02;100188.97;18542963;32;20096;-56
2022/07/30 11:47:35;;;;;;;4.30;1.80;;;;;;;24.41;72.11;100167.03;18543659;32;20088;-56
2022/07/30 11:57:42;;;;;;;3.95;1.70;;;;;;;25.19;70.30;100148.66;18556325;32;20142;-55
2022/07/30 12:07:46;;;;;;;2.87;1.70;;;;;;;25.77;69.38;100125.09;18564672;32;20430;-56
2022/07/30 12:17:51;;;;;;;3.42;1.62;;;;;;;25.94;66.29;100132.88;18565269;32;20085;-55
2022/07/30 12:28:21;;;;;;;2.42;1.42;;;;;;;26.53;65.33;100104.56;18564711;32;20100;-56
2022/07/30 12:38:27;;;;;;;4.87;2.23;;;;;;;26.99;62.92;100095.78;18497709;32;20452;-56
2022/07/30 12:48:30;;;;;;;3.62;2.03;;;;;;;26.15;64.41;100096.53;18498866;32;20116;-56
2022/07/30 12:58:37;;;;;;;3.60;1.90;;;;;;;26.41;63.30;100100.97;18498132;32;20104;-56
2022/07/30 13:08:52;;;;;;;4.35;1.90;;;;;;;26.53;65.59;100084.03;18498657;32;20124;-56
2022/07/30 13:18:56;;;;;;;1.33;1.02;;;;;;;26.84;62.75;100072.78;18497582;32;20440;-55
2022/07/30 13:29:00;;;;;;;1.17;0.70;;;;;;;27.41;59.71;100100.59;18503766;31;20098;-56
2022/07/30 13:39:05;;;;;;;2.75;0.80;;;;;;;27.17;57.87;100102.50;18547875;32;20172;-56
2022/07/30 13:49:09;;;;;;;1.10;0.80;;;;;;;27.01;57.33;100040.25;18560923;32;20103;-56
2022/07/30 13:59:14;;;;;;;1.83;0.95;;;;;;;27.61;54.36;100046.44;18523512;32;20177;-56
2022/07/30 14:09:18;;;;;;;1.77;0.93;;;;;;;27.01;55.66;100058.16;18557416;32;20084;-56
2022/07/30 14:19:22;;;;;;;1.40;1.00;;;;;;;26.34;56.57;100079.16;18561299;32;20092;-56
2022/07/30 14:29:27;;;;;;;2.25;0.95;;;;;;;26.23;55.27;100098.72;18560043;32;20104;-55
2022/07/30 14:39:31;;;;;;;0.65;0.62;;;;;;;26.32;56.87;100110.53;18558874;32;20107;-56
2022/07/30 14:49:35;;;;;;;1.40;0.70;;;;;;;26.60;56.26;100113.84;18560373;32;20589;-56
2022/07/30 14:59:39;;;;;;;0.75;0.47;;;;;;;26.91;54.86;100094.66;18559681;32;20149;-55
2022/07/30 15:09:43;;;;;;;1.95;1.00;;;;;;;27.89;52.04;100081.75;18559923;32;20118;-56
2022/07/30 15:19:48;;;;;;;1.42;1.20;;;;;;;28.12;51.20;100083.41;18558587;32;20096;-56
2022/07/30 15:29:53;;;;;;;1.73;1.08;;;;;;;27.81;49.32;100095.75;18557504;32;20111;-55
2022/07/30 15:39:58;;;;;;;1.23;0.90;;;;;;;27.35;49.70;100095.72;18564505;32;20119;-56
2022/07/30 15:50:02;;;;;;;0.80;0.80;;;;;;;26.98;52.14;100086.03;18564711;32;20118;-56
2022/07/30 16:00:08;;;;;;;1.05;0.93;;;;;;;26.62;52.13;100106.56;18563276;32;20196;-56
2022/07/30 16:10:17;;;;;;;1.37;0.88;;;;;;;26.86;53.19;100116.41;18499694;32;20107;-56
2022/07/30 16:20:34;;;;;;;1.45;1.05;;;;;;;26.94;52.60;100119.38;18550586;32;20436;-56
2022/07/30 16:30:40;;;;;;;1.87;1.10;;;;;;;26.83;51.93;100125.50;18549372;32;20149;-56
2022/07/30 16:40:55;;;;;;;1.58;1.10;;;;;;;26.79;52.74;100125.84;18563771;32;20096;-56
2022/07/30 16:50:58;;;;;;;0.95;0.85;;;;;;;26.78;52.32;100132.19;18563446;32;20729;-55
2022/07/30 17:01:03;;;;;;;1.60;1.12;;;;;;;26.66;52.48;100126.78;18562831;31;20089;-56
2022/07/30 17:11:06;;;;;;;1.30;0.80;;;;;;;26.55;50.53;100129.38;18562172;32;20118;-56
2022/07/30 17:21:13;;;;;;;1.25;1.00;;;;;;;26.50;51.88;100128.87;18563204;32;20348;-56
2022/07/30 17:31:16;;;;;;;1.40;1.10;;;;;;;26.53;52.57;100126.84;18561125;32;20493;-56
2022/07/30 17:41:21;;;;;;;1.92;1.10;;;;;;;26.52;51.90;100126.94;18563196;32;20399;-56
2022/07/30 17:51:24;;;;;;;2.80;1.20;;;;;;;26.24;55.13;100108.44;18561891;32;20097;-55
2022/07/30 18:01:29;;;;;;;2.40;1.10;;;;;;;26.14;52.89;100089.47;18561316;32;20139;-56
2022/07/30 18:11:32;;;;;;;5.82;2.45;;;;;;;26.04;53.25;100086.66;18547467;32;20103;-56
2022/07/30 18:21:37;;;;;;;2.72;1.45;;;;;;;25.89;53.59;100083.25;18561696;32;20127;-55
2022/07/30 18:31:40;;;;;;;3.35;1.50;;;;;;;25.75;54.16;100083.38;18561132;32;20129;-55
2022/07/30 18:41:45;;;;;;;2.08;1.20;;;;;;;25.77;54.37;100084.13;18560481;32;20136;-56
2022/07/30 18:51:48;;;;;;;2.58;1.65;;;;;;;25.59;53.86;100099.66;18560402;32;20115;-55
2022/07/30 19:01:53;;;;;;;5.03;2.10;;;;;;;25.63;53.95;100099.34;18559799;32;20140;-56
2022/07/30 19:11:56;;;;;;;2.62;1.52;;;;;;;25.44;55.16;100117.59;18570643;32;20104;-55
2022/07/30 19:22:01;;;;;;;4.25;2.08;;;;;;;25.33;54.57;100127.22;18580284;32;20140;-55
2022/07/30 19:32:05;;;;;;;4.50;2.12;;;;;;;25.31;53.34;100136.28;18564929;31;20092;-56
2022/07/30 19:42:10;;;;;;;4.05;2.25;;;;;;;25.28;51.72;100145.34;18564196;32;20115;-56
2022/07/30 19:52:13;;;;;;;4.18;2.17;;;;;;;25.18;52.81;100152.28;18578165;32;20118;-56
2022/07/30 20:02:34;;;;;;;4.93;2.22;;;;;;;25.35;51.28;100157.34;18573698;32;109309;-56
2022/07/30 20:12:37;;;;;;;5.43;2.23;;;;;;;25.06;51.62;100167.31;18576368;32;20106;-55
2022/07/30 20:22:45;;;;;;;5.22;2.33;;;;;;;25.17;52.39;100151.41;18568588;32;20456;-55
2022/07/30 20:32:49;;;;;;;5.05;2.58;;;;;;;24.84;52.69;100151.88;18549323;31;20109;-55
2022/07/30 20:42:54;;;;;;;6.68;3.20;;;;;;;24.85;52.99;100148.22;18550113;32;20115;-55
2022/07/30 20:52:57;;;;;;;5.25;2.70;;;;;;;24.62;54.18;100142.59;18550845;32;20387;-55
2022/07/30 21:03:03;;;;;;;5.50;2.70;;;;;;;24.62;54.49;100148.78;18563676;32;20389;-55
2022/07/30 21:13:07;;;;;;;5.18;2.75;;;;;;;24.65;54.52;100137.91;18563542;32;20092;-56
2022/07/30 21:23:17;;;;;;;6.07;3.10;;;;;;;24.47;55.02;100150.66;18562737;32;20076;-55
2022/07/30 21:33:22;;;;;;;6.37;3.08;;;;;;;24.30;55.46;100148.22;18555987;32;20138;-55
2022/07/30 21:43:33;;;;;;;6.87;3.62;;;;;;;24.07;57.71;100153.19;18560101;32;20089;-56
2022/07/30 21:53:37;;;;;;;7.25;3.40;;;;;;;23.78;58.43;100142.50;18560528;32;20115;-55
2022/07/30 22:03:51;;;;;;;7.18;3.47;;;;;;;23.63;60.02;100149.63;18562720;32;20084;-55
2022/07/30 22:14:09;;;;;;;6.97;3.65;;;;;;;23.47;60.30;100155.87;18561347;32;20096;-55
2022/07/30 22:24:14;;;;;;;7.18;3.55;;;;;;;23.35;60.81;100145.97;18560705;32;20115;-55
2022/07/30 22:34:32;;;;;;;7.50;3.62;;;;;;;23.24;61.19;100133.28;18560339;32;20156;-55
2022/07/30 22:44:37;;;;;;;8.07;4.10;;;;;;;23.28;61.82;100126.84;18560250;32;20124;-55
2022/07/30 22:54:40;;;;;;;7.68;3.75;;;;;;;23.28;61.88;100116.19;18560378;32;20092;-56
2022/07/30 23:04:45;;;;;;;8.52;4.25;;;;;;;23.16;61.55;100117.75;18558522;32;20092;-56
2022/07/30 23:14:52;;;;;;;5.82;3.37;;;;;;;23.15;61.36;100102.72;18558844;32;20114;-56
2022/07/30 23:24:56;;;;;;;7.55;3.78;;;;;;;23.00;61.36;100100.06;18544481;32;20126;-56
2022/07/30 23:35:00;;;;;;;8.35;3.22;;;;;;;23.07;60.69;100083.69;18543507;31;20414;-56
2022/07/30 23:45:05;;;;;;;7.43;3.67;;;;;;;23.24;59.63;100090.69;18557562;31;20106;-56
2022/07/30 23:55:10;;;;;;;7.65;3.70;;;;;;;23.02;60.03;100083.97;18555359;32;20478;-56
